Time;durP1;ratioP1;P1;durP2;ratioP2;P2;SDS_P1;SDS_P2;PMS_P1;PMS_P2;Temp;Humidity;BMP_temperature;BMP_pressure;BME280_temperature;BME280_humidity;BME280_pressure;Samples;Min_cycle;Max_cycle;Signal;HPM_P1;HPM_P2
2022/03/14 00:01:22;;;;;;;2.88;2.35;;;;;;;16.23;24.50;93442.72;4878772;29;20040;-92
2022/03/14 00:03:53;;;;;;;3.38;2.58;;;;;;;16.22;24.28;93443.94;4879647;29;20035;-91
2022/03/14 00:06:18;;;;;;;3.42;2.75;;;;;;;16.24;24.67;93440.72;4879409;29;20033;-92
2022/03/14 00:08:45;;;;;;;3.08;2.30;;;;;;;16.24;24.43;93443.47;4879507;29;20040;-92
2022/03/14 00:11:13;;;;;;;3.05;2.22;;;;;;;16.21;24.63;93441.72;4878859;29;20037;-91
2022/03/14 00:13:40;;;;;;;3.38;2.42;;;;;;;16.21;24.80;93439.72;4879553;29;20040;-92
2022/03/14 00:16:06;;;;;;;2.40;2.20;;;;;;;16.24;24.77;93427.09;4878649;29;20056;-90
2022/03/14 00:18:34;;;;;;;3.00;2.20;;;;;;;16.23;24.74;93439.25;4894517;29;20113;-91
2022/03/14 00:21:00;;;;;;;3.28;2.38;;;;;;;16.21;24.68;93442.47;4879549;29;20085;-90
2022/03/14 00:23:27;;;;;;;2.80;2.15;;;;;;;16.21;24.71;93437.00;4878049;29;20516;-91
2022/03/14 00:25:54;;;;;;;4.30;2.40;;;;;;;16.22;24.78;93432.28;4884589;29;20443;-91
2022/03/14 00:28:19;;;;;;;2.80;2.40;;;;;;;16.21;24.51;93437.00;4897519;29;20126;-93
2022/03/14 00:30:45;;;;;;;2.72;2.10;;;;;;;16.21;24.85;93442.47;4914007;29;20132;-91
2022/03/14 00:33:10;;;;;;;3.10;2.42;;;;;;;16.20;24.71;93438.25;4916219;29;20035;-91
2022/03/14 00:35:36;;;;;;;3.03;2.35;;;;;;;16.22;24.70;93435.75;4916446;29;20039;-91
2022/03/14 00:38:01;;;;;;;2.97;2.65;;;;;;;16.21;24.72;93447.91;4916181;29;20043;-91
2022/03/14 00:40:27;;;;;;;2.90;2.50;;;;;;;16.20;24.59;93446.44;4912572;29;20040;-92
2022/03/14 00:42:52;;;;;;;4.13;2.97;;;;;;;16.18;24.68;93438.00;4913026;29;20458;-93
2022/03/14 00:45:21;;;;;;;3.17;2.45;;;;;;;16.20;24.93;93443.69;4912940;29;20508;-91
2022/03/14 00:47:46;;;;;;;4.15;2.80;;;;;;;16.20;24.92;93448.41;4931824;29;20067;-91
2022/03/14 00:50:11;;;;;;;3.15;2.17;;;;;;;16.19;24.73;93439.47;4915851;29;20062;-91
2022/03/14 00:52:37;;;;;;;2.38;2.15;;;;;;;16.20;24.62;93445.69;4916215;29;20643;-90
2022/03/14 00:55:02;;;;;;;2.92;2.33;;;;;;;16.19;24.85;93446.91;4914621;29;20428;-91
2022/03/14 00:57:28;;;;;;;2.80;2.20;;;;;;;16.20;24.77;93446.44;4899614;29;20122;-92
2022/03/14 00:59:53;;;;;;;2.65;2.20;;;;;;;16.19;24.65;93444.19;4915953;29;20499;-92
2022/03/14 01:02:19;;;;;;;3.05;2.05;;;;;;;16.19;24.78;93457.81;4915135;29;20079;-90
2022/03/14 01:04:44;;;;;;;3.25;2.65;;;;;;;16.18;25.20;93459.81;4930622;29;20040;-93
2022/03/14 01:07:10;;;;;;;3.17;2.38;;;;;;;16.18;25.14;93461.78;4915077;29;20039;-91
2022/03/14 01:09:35;;;;;;;3.10;2.25;;;;;;;16.17;24.80;93457.56;4932528;29;20039;-92
2022/03/14 01:12:01;;;;;;;3.45;2.17;;;;;;;16.19;25.04;93468.75;4931820;29;20082;-92
2022/03/14 01:14:26;;;;;;;3.20;2.28;;;;;;;16.20;25.00;93473.69;4930494;29;20044;-92
2022/03/14 01:16:52;;;;;;;3.58;2.20;;;;;;;16.19;25.00;93474.19;4931090;29;20032;-93
2022/03/14 01:19:19;;;;;;;3.50;2.28;;;;;;;16.20;25.04;93473.69;4930858;29;20487;-91
2022/03/14 01:21:45;;;;;;;3.05;2.50;;;;;;;16.18;25.51;93476.19;4931328;29;20055;-91
2022/03/14 01:24:11;;;;;;;2.70;2.28;;;;;;;16.16;24.68;93470.47;4930390;29;20067;-90
2022/03/14 01:26:37;;;;;;;2.83;2.00;;;;;;;16.16;25.01;93469.72;4946882;29;20054;-91
2022/03/14 01:29:03;;;;;;;3.90;2.30;;;;;;;16.16;25.13;93470.47;4911824;29;20067;-90
2022/03/14 01:31:29;;;;;;;2.40;2.20;;;;;;;16.18;24.95;93467.25;4912017;29;20083;-91
2022/03/14 01:33:54;;;;;;;2.28;1.83;;;;;;;16.18;25.24;93473.44;4912148;29;20111;-91
2022/03/14 01:36:20;;;;;;;3.42;2.50;;;;;;;16.16;25.09;93481.38;4927331;29;20044;-90
2022/03/14 01:38:45;;;;;;;2.92;2.03;;;;;;;16.18;25.08;93480.88;4896268;29;20032;-91
2022/03/14 01:41:11;;;;;;;3.67;2.67;;;;;;;16.17;25.12;93493.78;4905834;29;20039;-91
2022/03/14 01:43:36;;;;;;;2.22;1.88;;;;;;;16.18;25.29;93489.81;4880479;29;20032;-91
2022/03/14 01:46:02;;;;;;;3.95;2.55;;;;;;;16.18;25.27;93497.25;4895775;29;20408;-91
2022/03/14 01:48:28;;;;;;;2.63;2.10;;;;;;;16.18;25.00;93499.97;4895980;29;20523;-91
2022/03/14 01:50:53;;;;;;;2.58;2.38;;;;;;;16.19;25.10;93502.22;4896302;29;20047;-92
2022/03/14 01:53:19;;;;;;;2.38;2.00;;;;;;;16.17;24.98;93499.22;4895008;29;20040;-91
2022/03/14 01:55:46;;;;;;;2.28;1.85;;;;;;;16.16;25.19;93500.47;4880497;29;20467;-91
2022/03/14 01:58:11;;;;;;;2.63;2.28;;;;;;;16.16;25.26;93500.47;4895360;29;20575;-91
2022/03/14 02:00:36;;;;;;;2.97;1.95;;;;;;;16.17;25.20;93507.41;4895786;29;20036;-91
2022/03/14 02:03:02;;;;;;;2.80;2.30;;;;;;;16.16;25.25;93502.44;4879490;29;20039;-91
2022/03/14 02:05:28;;;;;;;2.47;1.90;;;;;;;16.17;25.07;93501.22;4879788;29;20067;-91
2022/03/14 02:07:57;;;;;;;2.63;2.05;;;;;;;16.17;25.40;93501.22;4879801;29;20044;-92
2022/03/14 02:10:22;;;;;;;2.53;2.05;;;;;;;16.16;25.21;93505.91;4880451;29;20050;-91
2022/03/14 02:12:48;;;;;;;3.15;2.30;;;;;;;16.17;25.04;93512.88;4895941;29;20036;-91
2022/03/14 02:15:13;;;;;;;5.45;1.90;;;;;;;16.15;25.40;93522.78;4880197;29;20036;-91
2022/03/14 02:17:39;;;;;;;2.95;2.30;;;;;;;16.16;25.00;93521.53;4880156;29;20063;-91
2022/03/14 02:20:05;;;;;;;2.25;1.90;;;;;;;16.15;25.31;93518.06;4901641;29;20407;-91
2022/03/14 02:22:30;;;;;;;2.50;2.00;;;;;;;16.15;25.40;93518.06;4895730;29;20502;-91
2022/03/14 02:24:56;;;;;;;3.67;2.20;;;;;;;16.15;25.28;93509.13;4896139;29;20040;-91
2022/03/14 02:27:22;;;;;;;2.72;1.92;;;;;;;16.15;25.24;93517.31;4881410;29;20039;-91
2022/03/14 02:29:47;;;;;;;2.63;1.95;;;;;;;16.16;25.26;93522.28;4895866;29;20036;-92
2022/03/14 02:32:13;;;;;;;2.47;2.10;;;;;;;16.15;25.34;93525.50;4910975;29;20038;-91
2022/03/14 02:34:39;;;;;;;2.80;2.13;;;;;;;16.15;25.20;93520.78;4895951;29;20100;-91
2022/03/14 02:37:04;;;;;;;2.78;2.22;;;;;;;16.17;25.37;93523.03;4880032;29;20499;-90
2022/03/14 02:39:32;;;;;;;2.40;2.05;;;;;;;16.14;25.40;93522.03;4880050;29;20381;-91
2022/03/14 02:42:01;;;;;;;2.35;1.92;;;;;;;16.14;25.41;93530.22;4896144;29;20032;-92
2022/03/14 02:44:26;;;;;;;2.70;2.00;;;;;;;16.14;25.40;93519.31;4895649;29;20354;-92
2022/03/14 02:46:52;;;;;;;2.42;1.90;;;;;;;16.14;25.35;93524.00;4895452;29;20404;-93
2022/03/14 02:49:17;;;;;;;3.05;2.20;;;;;;;16.13;25.60;93519.78;4910648;29;20060;-91
2022/03/14 02:51:45;;;;;;;2.22;1.85;;;;;;;16.14;25.27;93519.31;4896052;29;20043;-91
2022/03/14 02:54:10;;;;;;;2.47;2.00;;;;;;;16.12;25.38;93524.50;4895269;29;20184;-92
2022/03/14 02:56:38;;;;;;;3.22;2.17;;;;;;;16.15;25.29;93533.69;4911457;29;20044;-91
2022/03/14 02:59:04;;;;;;;2.20;1.75;;;;;;;16.13;25.77;93533.44;4910342;29;20063;-91
2022/03/14 03:01:30;;;;;;;2.78;2.40;;;;;;;16.13;25.26;93539.63;4900128;29;20528;-92
2022/03/14 03:03:55;;;;;;;2.50;1.85;;;;;;;16.12;25.60;93543.59;4861433;29;20497;-92
2022/03/14 03:06:23;;;;;;;2.28;1.90;;;;;;;16.13;25.59;93541.63;4876139;29;20037;-91
2022/03/14 03:08:49;;;;;;;3.00;2.60;;;;;;;16.12;25.52;93543.59;4877224;29;20394;-92
2022/03/14 03:11:15;;;;;;;3.05;2.35;;;;;;;16.13;25.78;93550.53;4876350;29;20040;-91
2022/03/14 03:13:41;;;;;;;2.03;1.83;;;;;;;16.14;25.50;93562.19;4876919;29;20033;-92
2022/03/14 03:16:07;;;;;;;2.67;2.05;;;;;;;16.12;25.52;93570.88;4876471;29;20037;-91
2022/03/14 03:18:33;;;;;;;3.15;2.28;;;;;;;16.13;25.52;93585.25;4877426;29;20045;-91
2022/03/14 03:20:59;;;;;;;3.03;1.98;;;;;;;16.13;25.25;93586.00;4864779;29;20401;-91
2022/03/14 03:23:24;;;;;;;2.83;1.95;;;;;;;16.14;25.58;93589.47;4879511;29;20065;-91
2022/03/14 03:25:50;;;;;;;3.28;2.13;;;;;;;16.10;25.67;93582.25;4885323;29;20096;-93
2022/03/14 03:28:15;;;;;;;3.13;2.42;;;;;;;16.11;25.45;93588.47;4898543;29;20032;-91
2022/03/14 03:30:40;;;;;;;2.55;2.05;;;;;;;16.11;25.71;93594.66;4913844;29;20043;-92
2022/03/14 03:33:07;;;;;;;2.33;2.08;;;;;;;16.08;25.46;93592.91;4916881;29;20095;-92
2022/03/14 03:35:32;;;;;;;2.60;2.17;;;;;;;16.10;25.86;93590.44;4917400;29;20035;-91
2022/03/14 03:37:58;;;;;;;2.38;2.17;;;;;;;16.11;25.80;93593.91;4917309;29;20043;-91
2022/03/14 03:40:24;;;;;;;2.13;1.63;;;;;;;16.10;25.46;93616.97;4932559;29;20519;-92
2022/03/14 03:42:50;;;;;;;2.42;1.85;;;;;;;16.08;25.67;93613.97;4917321;29;20040;-93
2022/03/14 03:45:17;;;;;;;2.53;2.00;;;;;;;16.10;25.40;93606.06;4932404;29;20028;-91
2022/03/14 03:47:43;;;;;;;2.13;1.83;;;;;;;16.10;25.75;93611.50;4902394;29;20388;-91
2022/03/14 03:50:09;;;;;;;2.88;2.10;;;;;;;16.13;25.63;93615.25;4916414;28;20028;-92
2022/03/14 03:52:34;;;;;;;3.63;2.05;;;;;;;16.11;25.31;93624.66;4917207;29;20043;-93
2022/03/14 03:54:59;;;;;;;2.35;1.80;;;;;;;16.11;25.58;93632.09;4917286;29;20518;-91
2022/03/14 03:57:25;;;;;;;2.20;1.85;;;;;;;16.10;25.59;93633.34;4916582;28;20039;-93
2022/03/14 03:59:50;;;;;;;2.83;2.22;;;;;;;16.09;25.74;93646.22;4916811;29;20039;-91
2022/03/14 04:02:19;;;;;;;2.13;1.73;;;;;;;16.10;25.75;93647.72;4916525;28;20340;-93
2022/03/14 04:04:46;;;;;;;2.10;1.60;;;;;;;16.09;25.95;93659.09;4917244;29;20445;-91
2022/03/14 04:07:14;;;;;;;2.45;1.75;;;;;;;16.10;25.61;93666.06;4916331;28;20554;-92
2022/03/14 04:09:39;;;;;;;2.88;2.15;;;;;;;16.08;25.59;93674.72;4901815;29;20464;-92
2022/03/14 04:12:05;;;;;;;2.13;1.83;;;;;;;16.09;25.58;93670.00;4932482;29;20036;-92
2022/03/14 04:14:30;;;;;;;2.45;1.95;;;;;;;16.07;25.89;93662.31;4916794;29;20324;-92
2022/03/14 04:16:58;;;;;;;2.33;1.95;;;;;;;16.07;25.82;93670.50;4917140;29;20545;-91
2022/03/14 04:19:23;;;;;;;2.97;2.15;;;;;;;16.06;25.59;93679.91;4916341;28;20040;-93
2022/03/14 04:21:52;;;;;;;4.05;2.33;;;;;;;16.07;25.88;93681.41;4932468;29;20105;-92
2022/03/14 04:24:18;;;;;;;2.95;2.00;;;;;;;16.09;25.50;93684.41;4916129;28;20058;-91
2022/03/14 04:26:46;;;;;;;2.40;2.08;;;;;;;16.09;25.60;93683.66;4932345;29;20048;-91
2022/03/14 04:29:11;;;;;;;3.03;2.17;;;;;;;16.07;25.92;93689.59;4927568;29;20071;-91
2022/03/14 04:31:37;;;;;;;4.72;2.38;;;;;;;16.08;25.94;93702.00;4896911;29;20044;-91
2022/03/14 04:34:03;;;;;;;2.28;1.98;;;;;;;16.08;25.92;93698.53;4913382;29;20504;-91
2022/03/14 04:36:28;;;;;;;5.20;2.40;;;;;;;16.08;26.39;93703.97;4912995;29;20044;-92
2022/03/14 04:38:54;;;;;;;2.90;1.67;;;;;;;16.08;25.93;93712.91;4913439;29;20087;-91
2022/03/14 04:41:20;;;;;;;2.70;2.22;;;;;;;16.07;25.83;93705.97;4912206;29;20040;-91
2022/03/14 04:43:46;;;;;;;2.88;1.67;;;;;;;16.06;25.99;93712.63;4882314;29;20036;-91
2022/03/14 04:46:11;;;;;;;3.35;1.92;;;;;;;16.08;25.93;93712.91;4912613;29;20040;-93
2022/03/14 04:48:37;;;;;;;2.13;1.67;;;;;;;16.06;25.75;93709.16;4913237;29;20043;-91
2022/03/14 04:51:02;;;;;;;2.05;1.75;;;;;;;16.06;26.01;93720.81;4896245;29;20044;-93
2022/03/14 04:53:28;;;;;;;2.17;1.73;;;;;;;16.08;25.83;93728.50;4897317;29;20059;-92
2022/03/14 04:55:53;;;;;;;2.85;1.92;;;;;;;16.05;25.83;93734.94;4912766;29;20399;-91
2022/03/14 04:58:18;;;;;;;2.20;1.73;;;;;;;16.04;26.03;93730.72;4912627;29;20036;-92
2022/03/14 05:00:44;;;;;;;2.17;1.85;;;;;;;16.07;25.91;93738.69;4896698;29;20471;-93
2022/03/14 05:03:09;;;;;;;2.30;1.92;;;;;;;16.07;26.00;93746.13;4896449;29;20495;-92
2022/03/14 05:05:35;;;;;;;3.03;2.00;;;;;;;16.06;26.13;93750.06;4881461;29;20419;-91
2022/03/14 05:08:00;;;;;;;8.05;2.60;;;;;;;16.11;26.51;93743.91;4897168;29;20140;-93
2022/03/14 05:10:28;;;;;;;5.25;2.50;;;;;;;16.08;25.81;93751.09;4896435;29;20028;-92
2022/03/14 05:12:54;;;;;;;9.15;2.40;;;;;;;16.09;25.73;93762.75;4898238;29;20511;-92
2022/03/14 05:15:20;;;;;;;17.17;2.95;;;;;;;16.10;26.10;93762.25;4896723;29;20036;-90
2022/03/14 05:17:46;;;;;;;8.52;2.47;;;;;;;16.09;26.04;93768.94;4894526;29;20063;-91
2022/03/14 05:20:12;;;;;;;2.20;1.90;;;;;;;16.11;26.01;93777.38;4882941;29;20032;-94
2022/03/14 05:22:45;;;;;;;2.47;1.85;;;;;;;16.11;26.46;93773.91;4900336;29;20036;-90
2022/03/14 05:25:11;;;;;;;11.23;1.95;;;;;;;16.11;26.13;93782.84;4899679;29;20118;-89
2022/03/14 05:27:39;;;;;;;21.98;3.08;;;;;;;16.13;25.88;93784.34;4883991;29;20082;-91
2022/03/14 05:30:08;;;;;;;9.68;4.05;;;;;;;16.09;26.18;93781.81;4897581;29;20068;-89
2022/03/14 05:32:36;;;;;;;58.28;43.58;;;;;;;16.09;25.83;93784.56;4907615;29;20665;-92
2022/03/14 05:35:02;;;;;;;115.35;88.00;;;;;;;16.19;26.60;93794.06;4904520;29;20108;-90
2022/03/14 05:37:27;;;;;;;30.85;21.63;;;;;;;16.21;26.30;93797.03;4915605;29;20393;-92
2022/03/14 05:39:53;;;;;;;10.43;6.13;;;;;;;16.28;26.56;93793.09;4899138;29;20032;-87
2022/03/14 05:42:19;;;;;;;12.50;7.60;;;;;;;16.29;27.05;93803.53;4926423;29;20055;-86
2022/03/14 05:44:45;;;;;;;11.50;6.45;;;;;;;16.34;26.96;93815.69;4890857;29;20052;-89
2022/03/14 05:47:10;;;;;;;25.08;10.32;;;;;;;16.30;26.16;93818.66;4896918;29;20048;-88
2022/03/14 05:49:40;;;;;;;21.40;10.10;;;;;;;16.30;26.23;93829.56;4881213;29;20443;-91
2022/03/14 05:52:10;;;;;;;24.92;11.55;;;;;;;16.33;26.19;93836.78;4877865;29;20079;-91
2022/03/14 05:54:37;;;;;;;104.85;36.10;;;;;;;16.24;23.68;93844.44;4878467;29;20078;-86
2022/03/14 05:57:02;;;;;;;54.30;21.67;;;;;;;16.01;22.40;93844.25;4911267;29;20071;-89
2022/03/14 05:59:28;;;;;;;60.83;18.58;;;;;;;15.88;21.63;93856.78;4909603;29;20067;-89
2022/03/14 06:01:53;;;;;;;75.15;18.25;;;;;;;15.78;21.59;93856.22;4880258;29;20070;-88
2022/03/14 06:04:18;;;;;;;60.22;17.33;;;;;;;15.86;21.17;93861.97;4905688;29;20068;-88
2022/03/14 06:06:44;;;;;;;72.57;19.17;;;;;;;15.83;20.89;93868.38;4894224;29;20414;-87
2022/03/14 06:09:10;;;;;;;62.35;17.77;;;;;;;15.86;21.32;93861.97;4912387;29;20055;-87
2022/03/14 06:11:38;;;;;;;58.00;18.38;;;;;;;15.92;21.21;93857.31;4879474;29;20051;-87
2022/03/14 06:14:05;;;;;;;106.57;25.58;;;;;;;15.91;21.62;93867.47;4883877;29;20032;-88
2022/03/14 06:16:30;;;;;;;84.90;27.15;;;;;;;15.98;22.27;93867.03;4882098;29;20661;-88
2022/03/14 06:18:58;;;;;;;98.90;25.80;;;;;;;16.02;22.98;93883.19;4901915;29;20051;-90
2022/03/14 06:21:24;;;;;;;56.85;19.60;;;;;;;16.03;24.02;93887.38;4891414;29;20044;-91
2022/03/14 06:23:50;;;;;;;59.03;21.83;;;;;;;16.07;23.90;93893.38;4876507;29;20547;-87
2022/03/14 06:26:15;;;;;;;50.42;18.67;;;;;;;16.05;22.78;93906.75;4888722;29;20051;-86
2022/03/14 06:28:41;;;;;;;33.80;12.73;;;;;;;15.89;21.41;93905.38;4870642;29;20258;-90
2022/03/14 06:31:09;;;;;;;26.83;10.68;;;;;;;15.75;20.24;93901.53;4866385;29;20048;-93
2022/03/14 06:33:37;;;;;;;27.23;11.60;;;;;;;15.67;20.06;93924.25;4882434;29;20051;-89
2022/03/14 06:36:03;;;;;;;95.28;24.48;;;;;;;15.64;19.09;93928.66;4880971;29;20041;-89
2022/03/14 06:38:29;;;;;;;104.80;27.13;;;;;;;15.54;18.82;93921.88;4855379;29;20048;-88
2022/03/14 06:40:56;;;;;;;129.82;28.38;;;;;;;15.47;18.60;93929.69;4870003;29;20072;-88
2022/03/14 06:43:22;;;;;;;62.40;17.08;;;;;;;15.43;19.10;93938.06;4859101;29;20060;-87
2022/03/14 06:45:48;;;;;;;75.55;21.25;;;;;;;15.46;19.55;93931.66;4868801;29;20037;-92
2022/03/14 06:48:22;;;;;;;53.08;17.13;;;;;;;15.52;20.55;93942.63;4862435;29;20045;-90
2022/03/14 06:50:52;;;;;;;67.57;20.85;;;;;;;15.59;20.48;93953.88;4876297;29;20037;-93
2022/03/14 06:53:18;;;;;;;46.28;19.75;;;;;;;15.60;19.61;93954.63;4916185;29;20048;-93
2022/03/14 06:55:44;;;;;;;90.90;19.88;;;;;;;15.58;19.83;93955.13;4890703;29;20041;-91
2022/03/14 06:58:12;;;;;;;100.55;25.67;;;;;;;15.63;19.83;93961.84;4864487;29;20435;-89
2022/03/14 07:00:38;;;;;;;105.55;33.50;;;;;;;15.66;19.74;93958.91;4885685;29;20140;-91
2022/03/14 07:03:03;;;;;;;72.65;21.25;;;;;;;15.75;19.66;93972.41;4858702;29;20072;-89
2022/03/14 07:05:29;;;;;;;110.22;36.92;;;;;;;15.77;19.99;93978.13;4879271;29;20051;-90
2022/03/14 07:07:55;;;;;;;125.20;43.88;;;;;;;15.86;20.39;93979.19;4864757;29;20078;-88
2022/03/14 07:10:20;;;;;;;88.95;31.88;;;;;;;15.90;20.35;93982.47;4859657;29;20100;-91
2022/03/14 07:12:46;;;;;;;75.60;26.63;;;;;;;15.96;21.29;93984.03;4902437;23;20044;-87
2022/03/14 07:15:21;;;;;;;60.70;21.50;;;;;;;16.02;21.15;93987.53;4906848;29;20051;-87
2022/03/14 07:17:46;;;;;;;48.67;19.15;;;;;;;16.09;21.31;94003.47;4885427;29;20079;-86
2022/03/14 07:20:13;;;;;;;57.67;22.40;;;;;;;16.12;21.13;94007.22;4895502;29;20059;-92
2022/03/14 07:23:00;;;;;;;63.85;22.83;;;;;;;16.08;20.96;94012.88;4906532;29;20042;-88
2022/03/14 07:25:28;;;;;;;43.90;18.80;;;;;;;15.96;20.46;94021.44;4875192;29;20052;-87
2022/03/14 07:27:54;;;;;;;71.15;28.17;;;;;;;15.93;20.90;94028.59;4907561;29;20055;-88
2022/03/14 07:30:20;;;;;;;80.40;29.77;;;;;;;15.95;21.99;94044.50;4898559;29;20067;-90
2022/03/14 07:32:46;;;;;;;100.05;35.50;;;;;;;16.01;20.65;94040.59;4886842;29;20083;-85
2022/03/14 07:35:13;;;;;;;94.85;30.33;;;;;;;16.05;20.88;94032.94;4908881;29;20512;-86
2022/03/14 07:37:39;;;;;;;88.38;31.25;;;;;;;16.10;21.17;94039.69;4879746;29;20044;-86
2022/03/14 07:40:06;;;;;;;122.07;38.05;;;;;;;16.13;21.06;94046.16;4890191;29;20103;-85
2022/03/14 07:42:31;;;;;;;99.43;39.85;;;;;;;16.16;21.57;94048.69;4898472;29;20118;-88
2022/03/14 07:44:57;;;;;;;102.45;43.33;;;;;;;16.19;21.47;94055.91;4917387;29;20024;-86
2022/03/14 07:47:23;;;;;;;111.20;46.08;;;;;;;16.21;22.65;94058.16;4934910;29;20543;-85
2022/03/14 07:49:49;;;;;;;103.22;48.42;;;;;;;16.25;21.97;94067.59;4928285;29;20044;-87
2022/03/14 07:52:15;;;;;;;101.00;50.35;;;;;;;16.28;21.91;94063.91;4901714;29;20039;-88
2022/03/14 07:54:40;;;;;;;81.57;39.70;;;;;;;16.28;22.94;94071.34;4918122;29;20035;-92
2022/03/14 07:57:05;;;;;;;89.68;44.47;;;;;;;16.34;22.56;94072.16;4894682;29;20112;-89
2022/03/14 07:59:33;;;;;;;120.38;50.38;;;;;;;16.35;22.50;94073.66;4905448;29;20064;-87
2022/03/14 08:02:00;;;;;;;107.97;45.47;;;;;;;16.38;22.06;94076.19;4872167;29;20144;-88
2022/03/14 08:04:29;;;;;;;122.50;50.63;;;;;;;16.39;21.77;94077.69;4828820;29;20040;-90
2022/03/14 08:07:12;;;;;;;106.03;47.47;;;;;;;16.41;22.05;94069.78;4849411;29;20044;-92
2022/03/14 08:09:37;;;;;;;92.63;43.00;;;;;;;16.39;23.32;94074.22;4827965;29;20049;-86
2022/03/14 08:12:05;;;;;;;126.55;54.45;;;;;;;16.42;22.17;94079.47;4880306;29;20056;-92
2022/03/14 08:14:35;;;;;;;139.88;51.40;;;;;;;16.40;22.06;94081.16;4877754;29;20060;-92
2022/03/14 08:17:00;;;;;;;121.75;53.20;;;;;;;16.34;22.25;94091.25;4867123;29;20049;-90
2022/03/14 08:19:27;;;;;;;130.38;50.72;;;;;;;16.34;22.21;94099.44;4872728;29;20141;-90
2022/03/14 08:21:54;;;;;;;79.30;33.20;;;;;;;16.24;21.10;94109.03;4857719;29;20548;-88
2022/03/14 08:24:20;;;;;;;81.22;37.22;;;;;;;16.26;21.48;94120.19;4875114;29;20524;-90
2022/03/14 08:26:45;;;;;;;87.15;33.20;;;;;;;16.29;21.76;94119.22;4845329;29;20080;-88
2022/03/14 08:29:11;;;;;;;100.55;33.58;;;;;;;16.28;21.73;94126.66;4857591;29;20037;-88
2022/03/14 08:31:36;;;;;;;87.78;34.50;;;;;;;16.31;21.80;94144.06;4855966;29;20033;-88
2022/03/14 08:34:02;;;;;;;120.07;41.58;;;;;;;16.31;22.40;94144.06;4871455;29;20060;-91
2022/03/14 08:36:27;;;;;;;106.03;40.92;;;;;;;16.36;22.80;94149.59;4877920;29;20048;-90
2022/03/14 08:38:53;;;;;;;164.10;53.72;;;;;;;16.36;22.97;94149.59;4881569;29;20063;-90
2022/03/14 08:41:18;;;;;;;125.13;47.75;;;;;;;16.40;23.42;94158.31;4892371;29;20097;-87
2022/03/14 08:43:44;;;;;;;102.15;50.05;;;;;;;16.45;23.17;94171.25;4908967;29;20028;-89
2022/03/14 08:46:10;;;;;;;134.85;52.92;;;;;;;16.43;23.05;94171.00;4888247;29;20051;-89
2022/03/14 08:48:36;;;;;;;157.13;62.97;;;;;;;16.46;23.53;94177.47;4887011;29;20055;-91
2022/03/14 08:51:01;;;;;;;171.20;79.38;;;;;;;16.47;23.00;94178.97;4905270;29;20045;-91
2022/03/14 08:53:27;;;;;;;208.90;84.13;;;;;;;16.46;22.72;94180.94;4891435;29;20048;-90
2022/03/14 08:55:55;;;;;;;248.27;94.50;;;;;;;16.51;22.89;94184.22;4880576;29;20085;-92
2022/03/14 08:58:20;;;;;;;193.73;80.63;;;;;;;16.51;22.93;94192.41;4895314;29;20499;-92
2022/03/14 09:00:46;;;;;;;191.00;77.28;;;;;;;16.50;23.38;94188.16;4893400;29;20058;-92
2022/03/14 09:03:17;;;;;;;212.98;83.20;;;;;;;16.53;22.95;94193.44;4893104;29;20040;-92
2022/03/14 09:05:49;;;;;;;252.90;92.25;;;;;;;16.54;23.05;94180.53;4921586;29;20740;-92
2022/03/14 09:08:15;;;;;;;197.25;82.35;;;;;;;16.53;23.80;94193.44;4879661;29;20916;-92
2022/03/14 09:10:42;;;;;;;219.50;93.05;;;;;;;16.56;23.23;94195.19;4891852;29;20127;-92
2022/03/14 09:13:07;;;;;;;175.70;84.32;;;;;;;16.54;22.89;94189.47;4887063;29;20052;-91
2022/03/14 09:15:33;;;;;;;145.30;67.75;;;;;;;16.52;23.17;94191.19;4873342;29;20418;-91
2022/03/14 09:18:46;;;;;;;173.63;76.75;;;;;;;16.54;22.93;94194.94;4881182;29;20044;-92
2022/03/14 09:21:14;;;;;;;162.82;69.03;;;;;;;16.59;24.45;94201.69;4907231;29;20063;-88
2022/03/14 09:23:44;;;;;;;185.05;86.55;;;;;;;16.59;23.51;94210.63;4895774;29;20047;-94
2022/03/14 09:26:10;;;;;;;190.13;84.00;;;;;;;16.61;23.26;94210.16;4882643;29;20559;-91
2022/03/14 09:28:36;;;;;;;185.85;81.95;;;;;;;16.64;23.19;94220.91;4877272;29;20099;-88
2022/03/14 09:31:03;;;;;;;180.43;80.05;;;;;;;16.65;23.56;94233.31;4862257;29;20187;-91
2022/03/14 09:33:28;;;;;;;160.10;75.63;;;;;;;16.67;23.60;94238.28;4844584;29;20041;-89
2022/03/14 09:35:54;;;;;;;161.57;69.30;;;;;;;16.65;23.35;94236.03;4849454;29;20113;-92
2022/03/14 09:38:19;;;;;;;134.82;66.05;;;;;;;16.67;23.85;94232.84;4817288;29;20108;-93
2022/03/14 09:40:48;;;;;;;138.15;64.43;;;;;;;16.67;23.43;94241.03;4815809;29;20061;-90
2022/03/14 09:43:20;;;;;;;168.05;67.20;;;;;;;16.66;23.58;94245.72;4835574;29;20045;-94
2022/03/14 09:45:50;;;;;;;157.30;64.50;;;;;;;16.61;23.63;94248.38;4799077;29;20042;-93
2022/03/14 09:48:18;;;;;;;162.65;75.05;;;;;;;16.68;23.63;94247.97;4792363;29;20051;-92
2022/03/14 09:50:44;;;;;;;167.77;64.70;;;;;;;16.70;24.00;94245.50;4803636;29;20042;-92
2022/03/14 09:53:13;;;;;;;201.48;79.93;;;;;;;16.71;23.65;94247.75;4804130;29;20054;-94
2022/03/14 09:55:43;;;;;;;187.18;90.95;;;;;;;16.71;23.90;94252.47;4806502;29;20953;-93
2022/03/14 09:58:19;;;;;;;202.10;101.63;;;;;;;16.68;24.01;94247.97;4787966;29;20070;-92
2022/03/14 10:00:44;;;;;;;229.55;109.47;;;;;;;16.68;23.80;94245.97;4796876;29;20085;-88
2022/03/14 10:03:11;;;;;;;229.20;118.35;;;;;;;16.72;23.87;94257.44;4789763;29;20462;-89
2022/03/14 10:05:37;;;;;;;248.35;126.45;;;;;;;16.67;23.75;94263.59;4823574;29;20042;-92
2022/03/14 10:08:02;;;;;;;251.52;129.15;;;;;;;16.73;24.00;94250.00;4826270;29;20056;-91
2022/03/14 10:10:28;;;;;;;240.18;125.70;;;;;;;16.73;23.93;94255.47;4826627;29;20048;-91
2022/03/14 10:12:53;;;;;;;240.75;121.65;;;;;;;16.70;24.07;94262.63;4841396;29;20068;-90
2022/03/14 10:15:20;;;;;;;242.38;120.38;;;;;;;16.74;24.17;94256.97;4841074;29;20417;-90
2022/03/14 10:17:46;;;;;;;224.02;114.35;;;;;;;16.72;24.25;94260.19;4831733;29;20045;-89
2022/03/14 10:20:18;;;;;;;218.15;112.28;;;;;;;16.74;24.17;94268.66;4848873;29;20036;-94
2022/03/14 10:22:47;;;;;;;238.77;119.53;;;;;;;16.76;24.02;94263.47;4864375;29;20056;-93
2022/03/14 10:25:19;;;;;;;201.77;101.35;;;;;;;16.74;24.38;94268.66;4911976;29;20384;-93
2022/03/14 10:27:57;;;;;;;204.02;101.55;;;;;;;16.73;24.08;94272.59;4882609;29;20052;-93
2022/03/14 10:30:24;;;;;;;196.90;95.82;;;;;;;16.72;24.52;94270.34;4886019;29;20044;-92
2022/03/14 10:32:49;;;;;;;193.35;99.40;;;;;;;16.71;24.39;94279.75;4897802;29;20104;-92
2022/03/14 10:35:21;;;;;;;193.63;92.43;;;;;;;16.73;24.29;94291.72;4884218;29;20043;-91
2022/03/14 10:38:06;;;;;;;195.07;93.75;;;;;;;16.75;24.13;94291.25;4866062;29;20074;-92
2022/03/14 10:42:56;;;;;;;174.07;86.47;;;;;;;16.77;24.53;94289.53;4940500;23;20047;-90
2022/03/14 10:45:24;;;;;;;171.98;90.88;;;;;;;16.77;24.23;94289.53;4903917;29;20395;-90
2022/03/14 10:47:57;;;;;;;154.07;83.65;;;;;;;16.78;24.20;94293.00;4904097;29;20574;-93
2022/03/14 10:50:40;;;;;;;131.50;65.65;;;;;;;16.79;25.43;94299.97;4916643;29;20069;-90
2022/03/14 10:53:07;;;;;;;155.75;80.85;;;;;;;16.83;24.42;94295.06;4917507;29;20396;-91
2022/03/14 10:55:38;;;;;;;154.35;81.18;;;;;;;16.83;24.81;94303.25;4919594;29;20511;-92
2022/03/14 10:58:13;;;;;;;155.95;79.80;;;;;;;16.79;24.82;94297.25;4914806;29;20111;-90
2022/03/14 11:00:46;;;;;;;399.58;118.43;;;;;;;16.83;25.04;94307.97;4901706;29;20118;-89
2022/03/14 11:03:12;;;;;;;180.40;76.07;;;;;;;16.80;25.40;94309.66;4898520;29;20503;-90
2022/03/14 11:05:44;;;;;;;174.02;92.63;;;;;;;16.84;25.36;94315.69;4919227;29;20127;-87
2022/03/14 11:08:37;;;;;;;153.80;84.38;;;;;;;16.84;24.85;94314.94;4922430;29;20822;-90
2022/03/14 11:11:06;;;;;;;165.25;83.03;;;;;;;16.89;25.48;94323.16;4934825;29;20067;-86
2022/03/14 11:13:31;;;;;;;146.35;79.85;;;;;;;16.91;25.09;94317.97;4930285;29;20090;-88
2022/03/14 11:15:57;;;;;;;150.05;79.20;;;;;;;16.92;25.35;94322.22;4895884;29;20044;-88
2022/03/14 11:18:23;;;;;;;134.98;72.65;;;;;;;16.93;25.32;94312.78;4900793;29;20574;-90
2022/03/14 11:20:49;;;;;;;128.80;71.60;;;;;;;16.96;25.26;94314.56;4932072;29;20043;-86
2022/03/14 11:23:15;;;;;;;133.38;71.88;;;;;;;16.97;25.32;94318.81;4915130;29;20051;-88